Huvudsida
METAR-TAF:

METAR-TAF

Flygplatser :

Roskildes flygplats

Roskilde, Danmark

latitud: 55-35N, longitud: 012-08E, höjd: 44 m

Aktuellt väderrapport

Denna rapport gjordes för 38 minuter sedan, klockan 14:20 UTC
Vind 22 kt från ost i byarna ända upp till 32 kt
Temperatur 16°C
Fuktighet 36%
Tryck 1014 hPa
Sikt 10 km eller mer

METAR: EKRK 231420Z AUTO 10022G32KT 9999NDV NCD 16/01 Q1014

Tid: 16:58 (14:58 UTC)

Väderprognos

Denna rapport gjordes för 54 minuter sedan, klockan 14:04 UTC
Prognos gäller från 23 kl. 15 UTC till 23 kl. 24 UTC
Vind 25 kt från nord i byarna ända upp till 35 kt
Sikt 10 km eller mer
Inga moln under 1 500 m eller inga cumulonimbus
Temporärt
från 23 kl. 15 UTC till 23 kl. 24 UTC
Vind 20 kt från ost

TAF: EKRK 231404Z 2315/2324 01025G35KT CAVOK TEMPO 2315/2324 10020KT

Aktuella väderrapporter och prognoser från 4000 flygplatser (METAR- och TAF-rapporter).

De tillgängliga stationerna syns som gula och röda prickar på kartan.

För musen över prickarna för att se namnen på stationerna.

Klicka sedan för att få väderrapporter och prognoser.

För att ändra kartan: Klicka på de gröna knapparna med ett svart kors på för att zooma in; den gröna knappen med ett streck på för att zooma ut; eller på de gröna pilarna för angränsande kartor.


METAR-TAF: